createdAt,value
2017-10-21T00:00:01.340Z,86.60
2017-10-21T00:00:35.592Z,74.10
2017-10-21T00:01:10.384Z,82.15
2017-10-21T00:01:45.112Z,84.65
2017-10-21T00:02:19.985Z,82.62
2017-10-21T00:02:54.272Z,96.50
2017-10-21T00:03:28.811Z,76.60
2017-10-21T00:04:03.513Z,75.50
2017-10-21T00:04:38.216Z,72.32
2017-10-21T00:05:12.673Z,84.53
2017-10-21T00:05:47.380Z,75.65
2017-10-21T00:06:22.091Z,73.80
2017-10-21T00:06:56.606Z,79.60
2017-10-21T00:07:31.135Z,82.03
2017-10-21T00:08:05.852Z,82.57
2017-10-21T00:08:40.567Z,74.72
2017-10-21T00:09:15.272Z,74.80
2017-10-21T00:09:50.000Z,70.68
2017-10-21T00:10:24.747Z,76.05
2017-10-21T00:10:59.462Z,68.68
2017-10-21T00:11:34.192Z,77.35
2017-10-21T00:12:08.932Z,74.50
2017-10-21T00:12:43.642Z,87.45
2017-10-21T00:13:18.452Z,71.40
2017-10-21T00:13:53.173Z,75.55
2017-10-21T00:14:27.920Z,77.05
2017-10-21T00:15:02.644Z,71.22
2017-10-21T00:15:37.375Z,68.72
2017-10-21T00:16:12.104Z,70.15
2017-10-21T00:16:46.884Z,73.78
2017-10-21T00:17:21.877Z,75.40
2017-10-21T00:17:56.606Z,70.68
2017-10-21T00:18:31.335Z,69.05
2017-10-21T00:19:06.056Z,72.60
2017-10-21T00:19:40.509Z,75.77
2017-10-21T00:20:15.283Z,74.12
2017-10-21T00:20:50.513Z,79.20
2017-10-21T00:21:25.236Z,71.35
2017-10-21T00:21:59.944Z,76.20
2017-10-21T00:22:34.664Z,76.75
2017-10-21T00:23:09.372Z,77.18
2017-10-21T00:23:44.131Z,72.25
2017-10-21T00:24:18.591Z,82.70
2017-10-21T00:24:53.308Z,72.97
2017-10-21T00:25:28.039Z,73.05
2017-10-21T00:26:02.743Z,73.65
2017-10-21T00:26:37.186Z,76.00
2017-10-21T00:27:11.901Z,76.72
2017-10-21T00:27:46.636Z,76.47
2017-10-21T00:28:21.347Z,84.87
2017-10-21T00:28:56.469Z,76.70
2017-10-21T00:29:31.222Z,71.68
2017-10-21T00:30:05.948Z,89.37
2017-10-21T00:30:40.665Z,82.78
2017-10-21T00:31:15.371Z,76.82
2017-10-21T00:31:49.849Z,75.00
2017-10-21T00:32:24.644Z,81.80
2017-10-21T00:32:59.774Z,76.65
2017-10-21T00:33:34.529Z,82.78
2017-10-21T00:34:09.253Z,79.75
2017-10-21T00:34:44.065Z,84.28
2017-10-21T00:35:18.833Z,84.82
2017-10-21T00:35:53.544Z,82.75
2017-10-21T00:36:28.281Z,83.57
2017-10-21T00:37:02.989Z,78.28
2017-10-21T00:37:37.260Z,83.77
2017-10-21T00:38:11.735Z,79.07
2017-10-21T00:38:46.476Z,76.50
2017-10-21T00:39:21.192Z,82.28
2017-10-21T00:39:55.905Z,77.07
2017-10-21T00:40:30.630Z,84.07
2017-10-21T00:41:04.992Z,77.55
2017-10-21T00:41:39.726Z,82.68
2017-10-21T00:42:14.441Z,94.05
2017-10-21T00:42:49.163Z,80.85
2017-10-21T00:43:23.900Z,81.93
2017-10-21T00:43:58.613Z,77.22
2017-10-21T00:44:32.989Z,80.28
2017-10-21T00:45:07.713Z,84.68
2017-10-21T00:45:42.426Z,88.72
2017-10-21T00:46:17.140Z,78.10
2017-10-21T00:46:51.853Z,82.30
2017-10-21T00:47:26.566Z,82.95
2017-10-21T00:48:01.285Z,81.50
2017-10-21T00:48:36.027Z,83.00
2017-10-21T00:49:10.741Z,79.05
2017-10-21T00:49:45.451Z,73.87
2017-10-21T00:50:20.167Z,77.15
2017-10-21T00:50:54.879Z,73.37
2017-10-21T00:51:29.592Z,74.50
2017-10-21T00:52:04.348Z,79.68
2017-10-21T00:52:39.063Z,71.80
2017-10-21T00:53:13.431Z,77.20
2017-10-21T00:53:48.465Z,83.80
2017-10-21T00:54:23.164Z,71.28
2017-10-21T00:54:57.546Z,68.50
2017-10-21T00:55:31.924Z,70.30
2017-10-21T00:56:06.353Z,79.43
2017-10-21T00:56:40.712Z,71.00
2017-10-21T00:57:15.428Z,76.03
2017-10-21T00:57:51.511Z,70.28
2017-10-21T00:58:25.960Z,67.25
2017-10-21T00:59:00.547Z,74.87
2017-10-21T00:59:34.923Z,70.82
2017-10-21T01:00:09.768Z,71.55
2017-10-21T01:00:44.158Z,70.78
2017-10-21T01:01:18.578Z,70.25
2017-10-21T01:01:53.293Z,72.78
2017-10-21T01:02:28.021Z,71.68
2017-10-21T01:03:02.736Z,71.18
2017-10-21T01:03:37.438Z,75.40
2017-10-21T01:04:12.259Z,70.40
2017-10-21T01:04:46.984Z,65.28
2017-10-21T01:05:21.708Z,64.95
2017-10-21T01:05:56.421Z,67.82
2017-10-21T01:06:31.135Z,65.30
2017-10-21T01:07:05.848Z,64.40
2017-10-21T01:07:40.563Z,61.05
2017-10-21T01:08:15.279Z,68.93
2017-10-21T01:08:50.044Z,66.32
2017-10-21T01:09:24.253Z,71.20
2017-10-21T01:09:58.981Z,73.97
2017-10-21T01:10:33.700Z,64.28
2017-10-21T01:11:08.068Z,65.95
2017-10-21T01:11:42.456Z,59.47
2017-10-21T01:12:16.832Z,62.40
2017-10-21T01:12:51.570Z,65.50
2017-10-21T01:13:26.137Z,60.42
2017-10-21T01:14:00.851Z,65.40
2017-10-21T01:14:35.867Z,61.37
2017-10-21T01:15:10.580Z,56.97
2017-10-21T01:15:45.299Z,71.22
2017-10-21T01:16:19.844Z,66.22
2017-10-21T01:16:54.564Z,68.50
2017-10-21T01:17:29.310Z,63.63
2017-10-21T01:18:04.012Z,67.78
2017-10-21T01:18:38.741Z,61.40
2017-10-21T01:19:13.121Z,65.62
2017-10-21T01:19:47.804Z,64.90
2017-10-21T01:20:22.185Z,68.12
2017-10-21T01:20:56.554Z,70.95
2017-10-21T01:21:30.928Z,65.65
2017-10-21T01:22:05.303Z,62.55
2017-10-21T01:22:39.676Z,64.57
2017-10-21T01:23:14.042Z,61.53
2017-10-21T01:23:48.914Z,72.22
2017-10-21T01:24:23.648Z,64.97
2017-10-21T01:24:58.420Z,60.30
2017-10-21T01:25:32.834Z,70.07
2017-10-21T01:26:07.215Z,67.07
2017-10-21T01:26:41.585Z,66.47
2017-10-21T01:27:15.967Z,73.60
2017-10-21T01:27:50.395Z,68.05
2017-10-21T01:28:24.763Z,69.47
2017-10-21T01:28:59.152Z,72.85
2017-10-21T01:29:33.512Z,73.82
2017-10-21T01:30:08.252Z,70.40
2017-10-21T01:30:42.636Z,74.25
2017-10-21T01:31:17.002Z,69.37
2017-10-21T01:31:51.375Z,72.10
2017-10-21T01:32:25.751Z,64.05
2017-10-21T01:33:00.120Z,61.67
2017-10-21T01:33:34.841Z,66.75
2017-10-21T01:34:09.208Z,73.60
2017-10-21T01:34:43.572Z,67.78
2017-10-21T01:35:17.995Z,66.28
2017-10-21T01:35:52.709Z,75.45
2017-10-21T01:36:27.072Z,63.20
2017-10-21T01:37:01.787Z,66.53
2017-10-21T01:37:36.162Z,66.45
2017-10-21T01:38:10.534Z,73.82
2017-10-21T01:38:44.917Z,65.70
2017-10-21T01:39:19.280Z,72.95
2017-10-21T01:39:53.655Z,70.75
2017-10-21T01:40:28.390Z,73.20
2017-10-21T01:41:02.783Z,72.20
2017-10-21T01:41:37.505Z,66.65
2017-10-21T01:42:11.871Z,72.47
2017-10-21T01:42:46.251Z,69.93
2017-10-21T01:43:20.619Z,69.85
2017-10-21T01:43:54.998Z,78.65
2017-10-21T01:44:29.422Z,69.57
2017-10-21T01:45:03.788Z,68.65
2017-10-21T01:45:38.462Z,70.62
2017-10-21T01:46:13.167Z,73.47
2017-10-21T01:46:47.560Z,70.15
2017-10-21T01:47:21.928Z,71.95
2017-10-21T01:47:56.301Z,74.00
2017-10-21T01:48:30.663Z,72.90
2017-10-21T01:49:05.044Z,70.97
2017-10-21T01:49:39.414Z,70.97
2017-10-21T01:50:13.799Z,71.68
2017-10-21T01:50:48.201Z,69.07
2017-10-21T01:51:22.567Z,67.12
2017-10-21T01:51:56.939Z,66.97
2017-10-21T01:52:31.324Z,71.93
2017-10-21T01:53:05.688Z,70.43
2017-10-21T01:53:40.063Z,75.03
2017-10-21T01:54:14.434Z,74.22
2017-10-21T01:54:49.147Z,70.12
2017-10-21T01:55:23.524Z,71.70
2017-10-21T01:55:57.923Z,71.80
2017-10-21T01:56:32.301Z,68.65
2017-10-21T01:57:06.660Z,63.97
2017-10-21T01:57:41.375Z,69.95
2017-10-21T01:58:15.760Z,68.55
2017-10-21T01:58:50.142Z,68.30
2017-10-21T01:59:24.512Z,69.62
2017-10-21T01:59:58.894Z,68.12
2017-10-21T02:00:33.268Z,74.72
2017-10-21T02:01:07.661Z,68.12
2017-10-21T02:01:42.031Z,68.50
2017-10-21T02:02:16.420Z,63.05
2017-10-21T02:02:50.831Z,75.45
2017-10-21T02:03:25.198Z,78.32
2017-10-21T02:03:59.569Z,71.05
2017-10-21T02:04:33.965Z,67.93
2017-10-21T02:05:08.336Z,66.68
2017-10-21T02:05:42.760Z,66.55
2017-10-21T02:06:17.624Z,75.68
2017-10-21T02:06:51.994Z,66.62
2017-10-21T02:07:26.717Z,68.95
2017-10-21T02:08:01.427Z,62.60
2017-10-21T02:08:35.796Z,64.82
2017-10-21T02:09:10.158Z,63.17
2017-10-21T02:09:44.519Z,68.12
2017-10-21T02:10:18.886Z,74.55
2017-10-21T02:10:53.595Z,65.80
2017-10-21T02:11:27.984Z,63.87
2017-10-21T02:12:02.374Z,67.35
2017-10-21T02:12:36.747Z,60.97
2017-10-21T02:13:11.122Z,62.60
2017-10-21T02:13:45.496Z,66.43
2017-10-21T02:14:19.872Z,65.32
2017-10-21T02:14:54.241Z,66.80
2017-10-21T02:15:28.621Z,61.72
2017-10-21T02:16:02.991Z,65.10
2017-10-21T02:16:37.388Z,62.72
2017-10-21T02:17:11.768Z,70.22
2017-10-21T02:17:46.134Z,71.97
2017-10-21T02:18:20.508Z,69.53
2017-10-21T02:18:54.877Z,61.92
2017-10-21T02:19:29.260Z,61.72
2017-10-21T02:20:03.620Z,55.63
2017-10-21T02:20:37.996Z,62.40
2017-10-21T02:21:12.439Z,64.35
2017-10-21T02:21:47.121Z,58.20
2017-10-21T02:22:21.487Z,58.28
2017-10-21T02:22:55.856Z,61.37
2017-10-21T02:23:30.269Z,64.68
2017-10-21T02:24:04.624Z,57.22
2017-10-21T02:24:39.002Z,57.40
2017-10-21T02:25:13.371Z,62.33
2017-10-21T02:25:47.730Z,53.95
2017-10-21T02:26:22.099Z,63.95
2017-10-21T02:26:56.608Z,57.13
2017-10-21T02:27:30.973Z,58.58
2017-10-21T02:28:05.380Z,59.55
2017-10-21T02:28:39.776Z,53.80
2017-10-21T02:29:14.136Z,51.83
2017-10-21T02:29:48.497Z,50.50
2017-10-21T02:30:22.871Z,52.42
2017-10-21T02:30:57.232Z,54.35
2017-10-21T02:31:31.589Z,55.75
2017-10-21T02:32:05.967Z,57.38
2017-10-21T02:32:40.327Z,57.75
2017-10-21T02:33:14.706Z,57.97
2017-10-21T02:33:49.427Z,57.58
2017-10-21T02:34:23.792Z,57.10
2017-10-21T02:34:58.150Z,50.22
2017-10-21T02:35:32.503Z,56.58
2017-10-21T02:36:06.869Z,64.12
2017-10-21T02:36:41.232Z,51.80
2017-10-21T02:37:15.961Z,55.35
2017-10-21T02:37:50.346Z,50.10
2017-10-21T02:38:24.703Z,50.35
2017-10-21T02:38:59.078Z,50.45
2017-10-21T02:39:33.446Z,55.22
2017-10-21T02:40:07.822Z,48.97
2017-10-21T02:40:42.530Z,62.62
2017-10-21T02:41:16.910Z,58.95
2017-10-21T02:41:51.279Z,55.00
2017-10-21T02:42:25.656Z,57.60
2017-10-21T02:43:00.032Z,58.95
2017-10-21T02:43:34.399Z,46.37
2017-10-21T02:44:08.768Z,50.22
2017-10-21T02:44:43.150Z,49.95
2017-10-21T02:45:17.868Z,49.05
2017-10-21T02:45:52.235Z,55.72
2017-10-21T02:46:26.773Z,49.75
2017-10-21T02:47:01.143Z,47.58
2017-10-21T02:47:35.802Z,55.20
2017-10-21T02:48:10.519Z,50.12
2017-10-21T02:48:45.221Z,50.95
2017-10-21T02:49:19.941Z,48.00
2017-10-21T02:49:54.648Z,50.70
2017-10-21T02:50:29.361Z,51.35
2017-10-21T02:51:03.731Z,54.35
2017-10-21T02:51:38.489Z,52.45
2017-10-21T02:52:12.851Z,47.42
2017-10-21T02:52:47.575Z,55.03
2017-10-21T02:53:22.303Z,45.33
2017-10-21T02:53:56.684Z,52.15
2017-10-21T02:54:31.131Z,49.78
2017-10-21T02:55:05.900Z,46.58
2017-10-21T02:55:40.620Z,54.13
2017-10-21T02:56:15.337Z,47.25
2017-10-21T02:56:50.051Z,49.65
2017-10-21T02:57:24.788Z,48.53
2017-10-21T02:57:59.879Z,49.38
2017-10-21T02:58:34.590Z,52.65
2017-10-21T02:59:09.154Z,44.10
2017-10-21T02:59:43.873Z,48.28
2017-10-21T03:00:18.372Z,44.67
2017-10-21T03:00:53.171Z,50.33
2017-10-21T03:01:27.883Z,49.35
2017-10-21T03:02:02.417Z,41.53
2017-10-21T03:02:36.948Z,44.30
2017-10-21T03:03:11.708Z,51.53
2017-10-21T03:03:46.423Z,40.80
2017-10-21T03:04:21.124Z,46.67
2017-10-21T03:04:55.483Z,43.47
2017-10-21T03:05:30.011Z,49.10
2017-10-21T03:06:04.193Z,43.78
2017-10-21T03:06:38.919Z,37.80
2017-10-21T03:07:13.634Z,42.30
2017-10-21T03:07:48.350Z,41.92
2017-10-21T03:08:23.458Z,40.10
2017-10-21T03:08:58.176Z,43.30
2017-10-21T03:09:32.530Z,43.00
2017-10-21T03:10:07.238Z,44.70
2017-10-21T03:10:41.776Z,41.67
2017-10-21T03:11:16.175Z,43.53
2017-10-21T03:11:50.586Z,40.60
2017-10-21T03:12:25.294Z,47.08
2017-10-21T03:13:00.009Z,39.33
2017-10-21T03:13:34.414Z,37.13
2017-10-21T03:14:08.940Z,38.30
2017-10-21T03:14:43.459Z,39.28
2017-10-21T03:15:18.171Z,37.72
2017-10-21T03:15:52.889Z,39.58
2017-10-21T03:16:27.600Z,38.58
2017-10-21T03:17:01.984Z,36.63
2017-10-21T03:17:36.698Z,42.13
2017-10-21T03:18:11.407Z,42.95
2017-10-21T03:18:46.414Z,40.85
2017-10-21T03:19:21.161Z,43.03
2017-10-21T03:19:55.962Z,41.42
2017-10-21T03:20:30.664Z,35.00
2017-10-21T03:21:05.386Z,43.50
2017-10-21T03:21:40.099Z,39.10
2017-10-21T03:22:14.804Z,34.83
2017-10-21T03:22:49.521Z,39.33
2017-10-21T03:23:24.045Z,36.65
2017-10-21T03:23:58.603Z,37.15
2017-10-21T03:24:33.324Z,40.85
2017-10-21T03:25:07.689Z,40.28
2017-10-21T03:25:42.403Z,39.58
2017-10-21T03:26:16.976Z,37.25
2017-10-21T03:26:51.688Z,34.67
2017-10-21T03:27:26.410Z,34.13
2017-10-21T03:28:00.832Z,39.35
2017-10-21T03:28:35.371Z,38.78
2017-10-21T03:29:10.340Z,33.17
2017-10-21T03:29:45.053Z,40.88
2017-10-21T03:30:19.771Z,34.47
2017-10-21T03:30:54.157Z,32.03
2017-10-21T03:31:28.875Z,32.22
2017-10-21T03:32:03.587Z,33.97
2017-10-21T03:32:38.315Z,35.22
2017-10-21T03:33:13.037Z,36.00
2017-10-21T03:33:47.408Z,35.33
2017-10-21T03:34:22.304Z,39.78
2017-10-21T03:34:57.019Z,42.30
2017-10-21T03:35:31.426Z,32.65
2017-10-21T03:36:05.788Z,36.15
2017-10-21T03:36:40.151Z,37.67
2017-10-21T03:37:14.534Z,34.97
2017-10-21T03:37:48.903Z,37.47
2017-10-21T03:38:23.273Z,31.00
2017-10-21T03:38:57.632Z,34.38
2017-10-21T03:39:32.018Z,38.60
2017-10-21T03:40:06.432Z,37.45
2017-10-21T03:40:41.184Z,30.95
2017-10-21T03:41:15.897Z,36.35
2017-10-21T03:41:50.604Z,29.95
2017-10-21T03:42:25.340Z,35.67
2017-10-21T03:43:00.055Z,34.85
2017-10-21T03:43:34.780Z,32.47
2017-10-21T03:44:09.492Z,38.63
2017-10-21T03:44:44.279Z,40.50
2017-10-21T03:45:18.999Z,37.13
2017-10-21T03:45:53.709Z,36.03
2017-10-21T03:46:28.454Z,33.22
2017-10-21T03:47:02.848Z,35.08
2017-10-21T03:47:37.573Z,34.10
2017-10-21T03:48:12.317Z,36.85
2017-10-21T03:48:47.036Z,37.55
2017-10-21T03:49:21.746Z,30.52
2017-10-21T03:49:56.803Z,34.80
2017-10-21T03:50:31.601Z,32.85
2017-10-21T03:51:06.326Z,30.65
2017-10-21T03:51:41.129Z,33.33
2017-10-21T03:52:15.881Z,37.63
2017-10-21T03:52:50.591Z,33.70
2017-10-21T03:53:25.325Z,36.55
2017-10-21T03:54:00.031Z,29.10
2017-10-21T03:54:34.767Z,35.72
2017-10-21T03:55:09.509Z,33.58
2017-10-21T03:55:44.223Z,36.60
2017-10-21T03:56:18.939Z,35.45
2017-10-21T03:56:53.486Z,36.03
2017-10-21T03:57:28.018Z,33.28
2017-10-21T03:58:02.775Z,36.60
2017-10-21T03:58:37.590Z,31.60
2017-10-21T03:59:12.306Z,36.58
2017-10-21T03:59:47.027Z,32.28
2017-10-21T04:00:22.145Z,32.88
2017-10-21T04:00:56.959Z,34.90
2017-10-21T04:01:31.667Z,39.30
2017-10-21T04:02:06.393Z,29.85
2017-10-21T04:02:41.127Z,29.90
2017-10-21T04:03:15.843Z,31.37
2017-10-21T04:03:50.557Z,36.20
2017-10-21T04:04:25.300Z,32.58
2017-10-21T04:05:00.027Z,34.03
2017-10-21T04:05:34.756Z,29.00
2017-10-21T04:06:09.467Z,32.92
2017-10-21T04:06:44.194Z,35.05
2017-10-21T04:07:18.916Z,31.12
2017-10-21T04:07:53.621Z,29.48
2017-10-21T04:08:28.366Z,32.60
2017-10-21T04:09:03.097Z,32.95
2017-10-21T04:09:38.044Z,33.65
2017-10-21T04:10:12.454Z,33.35
2017-10-21T04:10:47.199Z,34.13
2017-10-21T04:11:21.588Z,31.37
2017-10-21T04:11:55.979Z,36.33
2017-10-21T04:12:30.349Z,33.05
2017-10-21T04:13:04.714Z,33.30
2017-10-21T04:13:39.433Z,36.88
2017-10-21T04:14:14.151Z,33.10
2017-10-21T04:14:48.878Z,38.05
2017-10-21T04:15:23.400Z,31.05
2017-10-21T04:15:58.139Z,37.97
2017-10-21T04:16:32.872Z,34.03
2017-10-21T04:17:07.588Z,37.97
2017-10-21T04:17:42.122Z,27.77
2017-10-21T04:18:16.660Z,33.60
2017-10-21T04:18:51.373Z,36.60
2017-10-21T04:19:26.083Z,34.90
2017-10-21T04:20:00.803Z,37.67
2017-10-21T04:20:34.984Z,35.42
2017-10-21T04:21:10.635Z,31.25
2017-10-21T04:21:45.349Z,31.05
2017-10-21T04:22:20.066Z,35.08
2017-10-21T04:22:54.776Z,31.48
2017-10-21T04:23:29.496Z,36.50
2017-10-21T04:24:04.041Z,35.47
2017-10-21T04:24:38.571Z,36.85
2017-10-21T04:25:13.161Z,29.50
2017-10-21T04:25:47.697Z,35.83
2017-10-21T04:26:22.238Z,32.95
2017-10-21T04:26:56.952Z,32.60
2017-10-21T04:27:31.317Z,33.78
2017-10-21T04:28:06.038Z,35.03
2017-10-21T04:28:40.764Z,33.92
2017-10-21T04:29:15.330Z,34.25
2017-10-21T04:29:50.054Z,34.75
2017-10-21T04:30:24.765Z,33.53
2017-10-21T04:30:59.472Z,32.42
2017-10-21T04:31:34.563Z,32.45
2017-10-21T04:32:09.276Z,28.73
2017-10-21T04:32:43.991Z,31.83
2017-10-21T04:33:18.709Z,35.63
2017-10-21T04:33:53.424Z,34.40
2017-10-21T04:34:28.138Z,31.70
2017-10-21T04:35:02.849Z,33.58
2017-10-21T04:35:37.571Z,36.03
2017-10-21T04:36:12.310Z,28.70
2017-10-21T04:36:47.396Z,33.60
2017-10-21T04:37:22.144Z,32.53
2017-10-21T04:37:56.853Z,30.55
2017-10-21T04:38:31.604Z,31.50
2017-10-21T04:39:06.339Z,28.65
2017-10-21T04:39:41.064Z,42.28
2017-10-21T04:40:15.807Z,37.85
2017-10-21T04:40:50.533Z,33.25
2017-10-21T04:41:25.250Z,32.42
2017-10-21T04:41:59.987Z,31.30
2017-10-21T04:42:34.710Z,32.28
2017-10-21T04:43:09.559Z,29.40
2017-10-21T04:43:44.277Z,31.10
2017-10-21T04:44:18.989Z,33.10
2017-10-21T04:44:53.699Z,38.72
2017-10-21T04:45:28.412Z,31.85
2017-10-21T04:46:03.124Z,31.80
2017-10-21T04:46:37.836Z,28.52
2017-10-21T04:47:12.595Z,38.08
2017-10-21T04:47:47.317Z,38.90
2017-10-21T04:48:22.045Z,36.22
2017-10-21T04:48:56.785Z,30.92
2017-10-21T04:49:31.510Z,28.58
2017-10-21T04:50:06.223Z,35.00
2017-10-21T04:50:40.950Z,30.77
2017-10-21T04:51:15.666Z,31.62
2017-10-21T04:51:50.388Z,31.50
2017-10-21T04:52:25.147Z,29.12
2017-10-21T04:52:59.914Z,34.80
2017-10-21T04:53:34.624Z,30.40
2017-10-21T04:54:09.351Z,28.90
2017-10-21T04:54:44.051Z,34.08
2017-10-21T04:55:18.756Z,26.30
2017-10-21T04:55:53.472Z,29.60
2017-10-21T04:56:28.209Z,37.15
2017-10-21T04:57:02.948Z,36.38
2017-10-21T04:57:37.802Z,31.95
2017-10-21T04:58:12.527Z,37.78
2017-10-21T04:58:47.242Z,38.00
2017-10-21T04:59:21.956Z,34.17
2017-10-21T04:59:56.748Z,38.00
2017-10-21T05:00:31.460Z,33.10
2017-10-21T05:01:06.186Z,36.78
2017-10-21T05:01:40.899Z,38.75
2017-10-21T05:02:15.765Z,30.77
2017-10-21T05:02:50.811Z,30.70
2017-10-21T05:03:25.523Z,38.25
2017-10-21T05:04:00.240Z,38.33
2017-10-21T05:04:34.955Z,34.47
2017-10-21T05:05:09.694Z,34.38
2017-10-21T05:05:44.420Z,38.90
2017-10-21T05:06:19.149Z,32.50
2017-10-21T05:06:53.874Z,33.70
2017-10-21T05:07:28.592Z,30.80
2017-10-21T05:08:03.340Z,35.45
2017-10-21T05:08:38.051Z,30.58
2017-10-21T05:09:12.785Z,35.55
2017-10-21T05:09:47.509Z,37.90
2017-10-21T05:10:22.235Z,35.20
2017-10-21T05:10:56.962Z,40.20
2017-10-21T05:11:31.687Z,33.72
2017-10-21T05:12:06.400Z,33.60
2017-10-21T05:12:41.118Z,32.88
2017-10-21T05:13:15.868Z,33.92
2017-10-21T05:13:50.588Z,33.78
2017-10-21T05:14:25.127Z,35.92
2017-10-21T05:14:59.851Z,39.33
2017-10-21T05:15:34.567Z,29.85
2017-10-21T05:16:09.276Z,32.47
2017-10-21T05:16:44.003Z,32.67
2017-10-21T05:17:18.567Z,32.65
2017-10-21T05:17:53.278Z,35.47
2017-10-21T05:18:28.012Z,39.95
2017-10-21T05:19:02.737Z,35.60
2017-10-21T05:19:37.255Z,31.10
2017-10-21T05:20:11.790Z,36.20
2017-10-21T05:20:46.508Z,36.80
2017-10-21T05:21:21.249Z,39.38
2017-10-21T05:21:55.976Z,35.05
2017-10-21T05:22:30.504Z,43.53
2017-10-21T05:23:05.093Z,29.92
2017-10-21T05:23:39.811Z,34.80
2017-10-21T05:24:14.520Z,37.58
2017-10-21T05:24:49.230Z,34.50
2017-10-21T05:25:23.938Z,34.40
2017-10-21T05:25:58.709Z,35.33
2017-10-21T05:26:33.444Z,36.60
2017-10-21T05:27:08.165Z,36.28
2017-10-21T05:27:42.897Z,29.48
2017-10-21T05:28:17.957Z,40.40
2017-10-21T05:28:52.672Z,36.67
2017-10-21T05:29:27.381Z,31.90
2017-10-21T05:30:02.097Z,36.83
2017-10-21T05:30:36.823Z,45.70
2017-10-21T05:31:11.560Z,38.08
2017-10-21T05:31:46.277Z,33.03
2017-10-21T05:32:20.989Z,30.55
2017-10-21T05:32:55.715Z,33.17
2017-10-21T05:33:30.453Z,44.33
2017-10-21T05:34:05.171Z,44.38
2017-10-21T05:34:39.880Z,34.80
2017-10-21T05:35:14.605Z,35.15
2017-10-21T05:35:49.308Z,39.47
2017-10-21T05:36:24.011Z,39.33
2017-10-21T05:36:58.812Z,35.72
2017-10-21T05:37:33.549Z,44.97
2017-10-21T05:38:08.274Z,41.28
2017-10-21T05:38:43.333Z,37.78
2017-10-21T05:39:18.045Z,43.67
2017-10-21T05:39:52.755Z,42.45
2017-10-21T05:40:27.287Z,38.75
2017-10-21T05:41:01.998Z,46.83
2017-10-21T05:41:36.725Z,36.53
2017-10-21T05:42:11.448Z,36.75
2017-10-21T05:42:45.979Z,40.42
2017-10-21T05:43:20.692Z,40.42
2017-10-21T05:43:55.437Z,37.28
2017-10-21T05:44:30.152Z,40.53
2017-10-21T05:45:04.877Z,39.58
2017-10-21T05:45:39.624Z,39.67
2017-10-21T05:46:14.367Z,40.05
2017-10-21T05:46:49.075Z,40.25
2017-10-21T05:47:23.791Z,38.13
2017-10-21T05:47:58.507Z,41.50
2017-10-21T05:48:33.222Z,47.17
2017-10-21T05:49:07.966Z,40.30
2017-10-21T05:49:42.684Z,45.08
2017-10-21T05:50:17.216Z,37.08
2017-10-21T05:50:51.938Z,46.78
2017-10-21T05:51:26.671Z,44.55
2017-10-21T05:52:01.400Z,43.20
2017-10-21T05:52:36.011Z,51.17
2017-10-21T05:53:10.732Z,45.80
2017-10-21T05:53:45.443Z,42.22
2017-10-21T05:54:20.184Z,47.90
2017-10-21T05:54:54.900Z,48.42
2017-10-21T05:55:29.442Z,46.60
2017-10-21T05:56:04.155Z,45.60
2017-10-21T05:56:38.864Z,49.13
2017-10-21T05:57:13.620Z,39.83
2017-10-21T05:57:48.324Z,57.30
2017-10-21T05:58:22.898Z,38.58
2017-10-21T05:58:57.616Z,46.13
2017-10-21T05:59:32.371Z,44.17
2017-10-21T06:00:07.117Z,46.78
2017-10-21T06:00:41.640Z,46.88
2017-10-21T06:01:16.164Z,41.45
2017-10-21T06:01:50.711Z,47.22
2017-10-21T06:02:25.227Z,38.50
2017-10-21T06:02:59.758Z,37.13
2017-10-21T06:03:34.310Z,36.25
2017-10-21T06:04:08.857Z,45.28
2017-10-21T06:04:43.413Z,39.60
2017-10-21T06:05:18.144Z,41.47
2017-10-21T06:05:52.875Z,42.92
2017-10-21T06:06:27.433Z,43.67
2017-10-21T06:07:01.960Z,42.38
2017-10-21T06:07:36.695Z,36.00
2017-10-21T06:08:11.431Z,40.53
2017-10-21T06:08:46.143Z,47.60
2017-10-21T06:09:20.859Z,44.63
2017-10-21T06:09:55.927Z,37.63
2017-10-21T06:10:30.641Z,38.85
2017-10-21T06:11:05.351Z,47.30
2017-10-21T06:11:39.896Z,38.15
2017-10-21T06:12:14.427Z,43.35
2017-10-21T06:12:48.976Z,37.80
2017-10-21T06:13:23.525Z,40.12
2017-10-21T06:13:58.114Z,37.30
2017-10-21T06:14:32.824Z,44.58
2017-10-21T06:15:07.727Z,43.97
2017-10-21T06:15:42.271Z,33.78
2017-10-21T06:16:16.821Z,37.53
2017-10-21T06:16:51.358Z,44.30
2017-10-21T06:17:31.500Z,42.70
2017-10-21T06:18:06.049Z,50.05
2017-10-21T06:18:40.591Z,37.67
2017-10-21T06:19:15.114Z,41.67
2017-10-21T06:19:49.624Z,39.72
2017-10-21T06:20:24.384Z,43.58
2017-10-21T06:20:58.933Z,37.78
2017-10-21T06:21:33.481Z,36.72
2017-10-21T06:22:08.015Z,35.38
2017-10-21T06:22:42.731Z,36.85
2017-10-21T06:23:17.494Z,40.42
2017-10-21T06:23:52.212Z,32.47
2017-10-21T06:24:26.745Z,39.40
2017-10-21T06:25:01.460Z,31.30
2017-10-21T06:25:36.193Z,36.20
2017-10-21T06:26:11.004Z,34.55
2017-10-21T06:26:45.542Z,32.20
2017-10-21T06:27:20.174Z,31.90
2017-10-21T06:27:54.904Z,40.85
2017-10-21T06:28:29.615Z,34.45
2017-10-21T06:29:04.328Z,31.45
2017-10-21T06:29:39.059Z,24.70
2017-10-21T06:30:13.602Z,36.10
2017-10-21T06:30:48.146Z,29.92
2017-10-21T06:31:22.759Z,28.10
2017-10-21T06:31:57.287Z,35.58
2017-10-21T06:32:31.810Z,36.13
2017-10-21T06:33:06.551Z,30.65
2017-10-21T06:33:41.271Z,28.62
2017-10-21T06:34:15.982Z,26.42
2017-10-21T06:34:50.719Z,30.77
2017-10-21T06:35:25.100Z,31.67
2017-10-21T06:35:59.788Z,24.37
2017-10-21T06:36:34.155Z,34.05
2017-10-21T06:37:08.363Z,36.25
2017-10-21T06:37:43.169Z,31.33
2017-10-21T06:38:17.886Z,38.97
2017-10-21T06:38:52.259Z,31.42
2017-10-21T06:39:26.971Z,30.27
2017-10-21T06:40:01.702Z,25.83
2017-10-21T06:40:36.418Z,26.77
2017-10-21T06:41:11.146Z,30.75
2017-10-21T06:41:45.867Z,25.05
2017-10-21T06:42:20.573Z,29.83
2017-10-21T06:42:55.300Z,33.75
2017-10-21T06:43:30.006Z,30.42
2017-10-21T06:44:04.419Z,36.20
2017-10-21T06:44:39.128Z,32.15
2017-10-21T06:45:13.496Z,28.92
2017-10-21T06:45:48.218Z,31.50
2017-10-21T06:46:22.962Z,24.73
2017-10-21T06:46:57.712Z,37.67
2017-10-21T06:47:32.423Z,31.98
2017-10-21T06:48:07.144Z,26.00
2017-10-21T06:48:41.852Z,22.17
2017-10-21T06:49:16.559Z,27.48
2017-10-21T06:49:51.367Z,27.42
2017-10-21T06:50:26.070Z,28.27
2017-10-21T06:51:00.777Z,28.17
2017-10-21T06:51:35.529Z,30.05
2017-10-21T06:52:10.291Z,30.83
2017-10-21T06:52:45.051Z,29.70
2017-10-21T06:53:19.765Z,30.48
2017-10-21T06:53:54.480Z,26.35
2017-10-21T06:54:29.267Z,24.08
2017-10-21T06:55:04.010Z,29.00
2017-10-21T06:55:38.723Z,32.30
2017-10-21T06:56:13.451Z,24.23
2017-10-21T06:56:48.199Z,28.50
2017-10-21T06:57:22.915Z,21.95
2017-10-21T06:57:57.629Z,27.75
2017-10-21T06:58:32.344Z,29.77
2017-10-21T06:59:07.069Z,22.23
2017-10-21T06:59:42.060Z,29.85
2017-10-21T07:00:16.778Z,26.58
2017-10-21T07:00:51.585Z,27.25
2017-10-21T07:01:26.306Z,20.40
2017-10-21T07:02:01.396Z,23.48
2017-10-21T07:02:36.110Z,26.17
2017-10-21T07:03:10.812Z,28.15
2017-10-21T07:03:45.608Z,31.30
2017-10-21T07:04:20.321Z,27.30
2017-10-21T07:04:55.045Z,26.37
2017-10-21T07:05:29.861Z,28.35
2017-10-21T07:06:04.556Z,26.90
2017-10-21T07:06:39.274Z,26.40
2017-10-21T07:07:14.025Z,25.70
2017-10-21T07:07:48.738Z,25.42
2017-10-21T07:08:23.454Z,29.83
2017-10-21T07:08:58.167Z,22.05
2017-10-21T07:09:32.880Z,26.27
2017-10-21T07:10:07.594Z,21.00
2017-10-21T07:10:42.304Z,30.45
2017-10-21T07:11:16.844Z,24.15
2017-10-21T07:11:51.103Z,22.97
2017-10-21T07:12:25.662Z,21.90
2017-10-21T07:13:00.102Z,22.60
2017-10-21T07:13:34.927Z,36.38
2017-10-21T07:14:09.743Z,19.62
2017-10-21T07:14:44.266Z,27.20
2017-10-21T07:15:18.519Z,25.07
2017-10-21T07:15:53.238Z,23.00
2017-10-21T07:16:27.952Z,21.65
2017-10-21T07:17:02.655Z,21.77
2017-10-21T07:17:37.407Z,21.77
2017-10-21T07:18:12.122Z,22.77
2017-10-21T07:18:46.839Z,20.67
2017-10-21T07:19:21.549Z,21.67
2017-10-21T07:19:56.264Z,21.83
2017-10-21T07:20:30.977Z,24.20
2017-10-21T07:21:05.687Z,31.17
2017-10-21T07:21:40.412Z,23.50
2017-10-21T07:22:15.129Z,21.37
2017-10-21T07:22:49.865Z,21.55
2017-10-21T07:23:24.580Z,25.92
2017-10-21T07:23:59.295Z,25.12
2017-10-21T07:24:33.666Z,19.08
2017-10-21T07:25:08.389Z,21.85
2017-10-21T07:25:42.852Z,24.50